Time;durP1;ratioP1;P1;durP2;ratioP2;P2;SDS_P1;SDS_P2;PMS_P1;PMS_P2;Temp;Humidity;BMP_temperature;BMP_pressure;BME280_temperature;BME280_humidity;BME280_pressure;Samples;Min_cycle;Max_cycle;Signal;HPM_P1;HPM_P2
2023/09/26 00:00:34;;;;;;;11.30;8.00;;;10.90;99.90;;;10.43;100.00;98585.72;5083828;28;20501;-77
2023/09/26 00:03:01;;;;;;;9.40;8.47;;;10.80;99.90;;;10.44;100.00;98594.66;5065060;28;20519;-76
2023/09/26 00:05:32;;;;;;;8.63;7.83;;;10.80;99.90;;;9.97;100.00;98521.50;5075293;28;20478;-79
2023/09/26 00:08:03;;;;;;;8.27;7.57;;;10.70;99.90;;;10.47;100.00;98584.28;5079827;28;20847;-76
2023/09/26 00:10:30;;;;;;;9.00;8.13;;;10.70;99.90;;;10.54;100.00;98587.03;5083226;28;20564;-78
2023/09/26 00:12:58;;;;;;;12.67;8.63;;;10.80;99.90;;;10.54;100.00;98591.56;5077776;28;20546;-76
2023/09/26 00:15:26;;;;;;;9.70;8.70;;;10.80;99.90;;;10.36;100.00;98590.22;5084929;28;20530;-76
2023/09/26 00:17:55;;;;;;;9.97;8.90;;;10.70;99.90;;;10.32;100.00;98583.56;5066106;28;20486;-76
2023/09/26 00:20:27;;;;;;;9.43;8.50;;;10.70;99.90;;;10.31;100.00;98581.91;5080447;28;20498;-77
2023/09/26 00:22:59;;;;;;;9.57;8.57;;;10.60;99.90;;;10.24;100.00;98560.25;5081252;28;20457;-78
2023/09/26 00:25:27;;;;;;;9.47;8.50;;;10.60;99.90;;;10.29;100.00;98567.75;5085066;28;20477;-77
2023/09/26 00:27:55;;;;;;;9.97;8.57;;;10.60;99.90;;;10.33;100.00;98566.31;5079505;28;20447;-76
2023/09/26 00:30:25;;;;;;;10.13;9.13;;;10.60;99.90;;;10.35;100.00;98567.78;5078934;28;20455;-78
2023/09/26 00:32:53;;;;;;;10.10;9.10;;;10.60;99.90;;;10.39;100.00;98570.94;5086358;28;20508;-75
2023/09/26 00:35:20;;;;;;;10.10;8.60;;;10.60;99.90;;;10.39;100.00;98567.38;5076922;28;20847;-74
2023/09/26 00:37:50;;;;;;;8.87;8.00;;;10.60;99.90;;;10.40;100.00;98569.91;5082856;28;20523;-78
2023/09/26 00:40:22;;;;;;;9.20;8.40;;;10.70;99.90;;;10.41;100.00;98566.19;5082610;28;20457;-75
2023/09/26 00:42:49;;;;;;;10.27;9.20;;;10.70;99.90;;;10.24;100.00;98527.03;5082144;28;20922;-76
2023/09/26 00:45:18;;;;;;;9.73;8.80;;;10.80;99.90;;;10.12;100.00;98508.69;5085487;28;20521;-77
2023/09/26 00:47:46;;;;;;;9.30;8.50;;;10.80;99.90;;;10.38;100.00;98566.53;5101121;28;20444;-77
2023/09/26 00:50:13;;;;;;;10.77;8.50;;;10.70;99.90;;;10.48;100.00;98577.84;5084259;28;20841;-79
2023/09/26 00:52:42;;;;;;;9.23;8.40;;;10.80;99.90;;;10.34;100.00;98563.44;5082689;28;20479;-79
2023/09/26 00:55:10;;;;;;;8.53;7.73;;;10.70;99.90;;;10.31;100.00;98569.25;5085692;28;20874;-78
2023/09/26 00:57:40;;;;;;;8.97;8.17;;;10.70;99.90;;;10.18;100.00;98569.97;5067664;28;20486;-78
2023/09/26 01:00:12;;;;;;;9.47;8.53;;;10.60;99.90;;;10.38;100.00;98581.94;5077546;28;20839;-78
2023/09/26 01:02:40;;;;;;;9.20;8.40;;;10.70;99.90;;;10.28;100.00;98569.63;5084629;28;20468;-78
2023/09/26 01:05:09;;;;;;;9.20;8.33;;;10.60;99.90;;;10.41;100.00;98579.69;5084780;28;20536;-77
2023/09/26 01:07:37;;;;;;;10.10;9.10;;;10.70;99.90;;;10.52;100.00;98578.28;5084678;28;20451;-75
2023/09/26 01:10:05;;;;;;;9.00;8.07;;;10.80;99.90;;;10.46;100.00;98568.25;5083398;28;20453;-76
2023/09/26 01:12:32;;;;;;;10.23;9.27;;;10.80;99.90;;;10.47;100.00;98569.97;5083181;28;20481;-78
2023/09/26 01:15:01;;;;;;;9.73;8.80;;;10.80;99.90;;;10.47;100.00;98565.38;5082536;28;20475;-76
2023/09/26 01:17:31;;;;;;;8.10;7.40;;;10.80;99.90;;;10.56;100.00;98568.72;5083834;28;20518;-80
2023/09/26 01:19:59;;;;;;;9.20;8.30;;;10.90;99.90;;;10.44;100.00;98564.94;5080742;28;20470;-75
2023/09/26 01:22:29;;;;;;;8.87;7.97;;;10.80;99.90;;;10.18;100.00;98563.75;5066686;28;20465;-76
2023/09/26 01:24:58;;;;;;;10.27;9.27;;;10.70;99.90;;;9.86;100.00;98523.69;5077140;28;21240;-77
2023/09/26 01:27:25;;;;;;;9.37;8.47;;;10.50;99.90;;;10.32;100.00;98568.19;5082708;28;20456;-78
2023/09/26 01:29:54;;;;;;;9.70;8.70;;;10.60;99.90;;;10.37;100.00;98570.28;5083170;28;20462;-78
2023/09/26 01:32:23;;;;;;;8.37;7.37;;;10.70;99.90;;;10.31;100.00;98565.69;5097266;28;20475;-76
2023/09/26 01:34:51;;;;;;;9.53;8.60;;;10.70;99.90;;;10.28;100.00;98569.63;5101408;28;20468;-78
2023/09/26 01:37:20;;;;;;;9.33;8.43;;;10.70;99.90;;;10.23;100.00;98555.03;5097040;28;20572;-78
2023/09/26 01:39:47;;;;;;;9.23;7.90;;;10.70;99.90;;;9.90;100.00;98530.34;5091423;28;20452;-77
2023/09/26 01:42:16;;;;;;;9.57;8.30;;;10.60;99.90;;;10.06;100.00;98574.25;5088132;28;20449;-77
2023/09/26 01:44:43;;;;;;;9.60;8.70;;;10.40;99.90;;;9.92;100.00;98578.75;5077868;28;20482;-76
2023/09/26 01:47:22;;;;;;;9.17;8.33;;;10.30;99.90;;;9.86;100.00;98584.97;5086073;28;20470;-78
2023/09/26 01:49:49;;;;;;;8.60;7.73;;;10.20;99.90;;;9.85;100.00;98570.63;5084811;28;20465;-78
2023/09/26 01:52:17;;;;;;;8.50;7.60;;;10.20;99.90;;;10.03;100.00;98582.78;5084558;28;20452;-76
2023/09/26 01:54:44;;;;;;;7.53;6.83;;;10.30;99.90;;;10.00;100.00;98577.78;5084345;28;20456;-79
2023/09/26 01:57:11;;;;;;;9.87;6.70;;;10.30;99.90;;;9.87;100.00;98568.56;5086794;28;20587;-77
2023/09/26 01:59:40;;;;;;;8.47;7.67;;;10.20;99.90;;;9.34;100.00;98523.13;5085526;28;20492;-77
2023/09/26 02:02:07;;;;;;;9.33;8.37;;;10.10;99.90;;;9.58;100.00;98567.72;5080977;28;20451;-79
2023/09/26 02:04:35;;;;;;;9.70;8.20;;;10.00;99.90;;;9.63;100.00;98576.06;5068788;28;20462;-78
2023/09/26 02:07:02;;;;;;;9.47;8.40;;;10.00;99.90;;;9.84;100.00;98577.03;5100272;28;20884;-79
2023/09/26 02:09:30;;;;;;;9.73;8.53;;;10.10;99.90;;;9.50;100.00;98533.63;5084033;28;20454;-78
2023/09/26 02:11:57;;;;;;;8.70;7.87;;;10.10;99.90;;;9.61;100.00;98567.31;5084402;28;21372;-78
2023/09/26 02:14:24;;;;;;;8.93;7.47;;;10.00;99.90;;;9.56;100.00;98563.56;5089063;28;20469;-79
2023/09/26 02:16:54;;;;;;;9.20;8.30;;;9.90;99.90;;;9.50;100.00;98544.41;5086192;28;20459;-79
2023/09/26 02:19:21;;;;;;;9.23;8.20;;;9.90;99.90;;;9.73;100.00;98569.50;5086014;28;20578;-79
2023/09/26 02:21:49;;;;;;;10.73;8.33;;;10.00;99.90;;;9.76;100.00;98567.25;5070314;28;20471;-78
2023/09/26 02:24:16;;;;;;;11.57;8.07;;;10.10;99.90;;;9.48;100.00;98533.00;5085612;28;20519;-78
2023/09/26 02:26:44;;;;;;;10.63;9.50;;;10.10;99.90;;;9.62;100.00;98552.78;5084305;28;21012;-78
2023/09/26 02:29:11;;;;;;;9.23;8.33;;;10.00;99.90;;;9.62;100.00;98552.78;5089405;28;20446;-79
2023/09/26 02:31:38;;;;;;;9.53;8.57;;;10.00;99.90;;;9.68;100.00;98561.16;5087300;28;20439;-78
2023/09/26 02:34:07;;;;;;;11.77;8.77;;;10.00;99.90;;;9.59;100.00;98549.69;5090443;28;20477;-78
2023/09/26 02:36:34;;;;;;;9.70;8.80;;;10.00;99.90;;;9.73;100.00;98564.09;5087857;28;20461;-78
2023/09/26 02:39:01;;;;;;;10.70;9.47;;;10.00;99.90;;;9.71;100.00;98558.06;5086396;28;20450;-78
2023/09/26 02:41:29;;;;;;;10.83;9.47;;;10.00;99.90;;;9.75;100.00;98559.31;5082724;28;20459;-80
2023/09/26 02:43:58;;;;;;;9.70;8.80;;;10.00;99.90;;;9.46;100.00;98531.50;5086333;28;20504;-79
2023/09/26 02:46:25;;;;;;;10.60;9.60;;;10.00;99.90;;;9.59;100.00;98558.59;5086913;28;20461;-78
2023/09/26 02:48:53;;;;;;;9.63;8.73;;;10.00;99.90;;;9.49;100.00;98542.75;5087425;28;20452;-76
2023/09/26 02:51:21;;;;;;;10.03;9.10;;;9.90;99.90;;;9.49;100.00;98541.94;5082009;28;20459;-77
2023/09/26 02:53:49;;;;;;;9.43;8.53;;;9.90;99.90;;;9.20;100.00;98519.50;5086914;28;20527;-77
2023/09/26 02:56:16;;;;;;;9.20;8.20;;;9.80;99.90;;;9.23;100.00;98520.94;5083996;28;20449;-80
2023/09/26 02:58:43;;;;;;;10.47;8.40;;;9.80;99.90;;;9.13;100.00;98519.44;5083185;28;20447;-79
2023/09/26 03:01:16;;;;;;;10.80;8.00;;;9.80;99.90;;;9.37;100.00;98565.06;5098496;28;20520;-79
2023/09/26 03:03:43;;;;;;;10.23;8.87;;;9.70;99.90;;;9.29;100.00;98547.97;5067094;28;20455;-78
2023/09/26 03:06:10;;;;;;;10.83;8.73;;;9.70;99.90;;;9.02;100.00;98510.03;5086819;28;20471;-79
2023/09/26 03:08:39;;;;;;;8.90;8.00;;;9.70;99.90;;;9.30;100.00;98549.63;5081508;28;20470;-80
2023/09/26 03:11:06;;;;;;;10.50;9.10;;;9.70;99.90;;;9.33;100.00;98560.06;5087428;28;20919;-77
2023/09/26 03:13:34;;;;;;;10.37;9.37;;;9.70;99.90;;;9.30;100.00;98560.44;5087752;28;20457;-80
2023/09/26 03:16:02;;;;;;;9.43;8.53;;;9.70;99.90;;;8.80;100.00;98490.31;5083217;28;20899;-79
2023/09/26 03:18:30;;;;;;;9.67;8.80;;;9.70;99.90;;;9.30;100.00;98571.22;5082360;28;20537;-79
2023/09/26 03:20:57;;;;;;;10.67;8.77;;;9.70;99.90;;;9.35;100.00;98565.25;5087982;28;20455;-78
2023/09/26 03:23:25;;;;;;;12.73;9.63;;;9.70;99.90;;;9.30;100.00;98570.41;5084613;28;20455;-78
2023/09/26 03:25:54;;;;;;;10.37;9.27;;;9.70;99.90;;;8.88;100.00;98509.03;5085220;28;20471;-79
2023/09/26 03:28:21;;;;;;;9.80;8.90;;;9.60;99.90;;;9.21;100.00;98564.31;5086163;28;20450;-78
2023/09/26 03:30:48;;;;;;;9.63;8.70;;;9.60;99.90;;;9.31;100.00;98563.97;5087466;28;20505;-79
2023/09/26 03:33:16;;;;;;;9.63;8.80;;;9.60;99.90;;;8.66;100.00;98457.00;5086766;28;20538;-78
2023/09/26 03:35:43;;;;;;;10.70;9.60;;;9.70;99.90;;;9.38;100.00;98561.34;5081624;28;20451;-78
2023/09/26 03:38:10;;;;;;;10.90;9.80;;;9.70;99.90;;;9.13;100.00;98510.50;5098327;28;20455;-78
2023/09/26 03:40:38;;;;;;;10.33;9.30;;;9.80;99.90;;;9.56;100.00;98571.66;5086090;28;20865;-77
2023/09/26 03:43:07;;;;;;;11.83;9.23;;;9.90;99.90;;;9.64;100.00;98564.25;5084322;28;20515;-80
2023/09/26 03:45:34;;;;;;;14.70;9.20;;;9.90;99.90;;;9.78;100.00;98556.22;5088803;28;20474;-76
2023/09/26 03:48:01;;;;;;;9.53;8.60;;;10.00;99.90;;;9.75;100.00;98559.31;5084461;28;21312;-78
2023/09/26 03:50:28;;;;;;;12.40;11.13;;;10.10;99.90;;;9.88;100.00;98564.81;5083021;28;20498;-80
2023/09/26 03:52:56;;;;;;;15.10;10.40;;;10.20;99.90;;;9.97;100.00;98537.69;5073956;28;20446;-78
2023/09/26 03:55:23;;;;;;;12.47;11.10;;;10.30;99.90;;;10.04;100.00;98549.34;5076060;28;20455;-78
2023/09/26 03:57:50;;;;;;;14.97;13.47;;;10.30;99.90;;;9.95;100.00;98534.34;5078993;28;20567;-78
2023/09/26 04:00:25;;;;;;;19.57;15.50;;;10.40;99.90;;;10.14;100.00;98554.38;5085684;28;20461;-78
2023/09/26 04:02:54;;;;;;;17.23;13.67;;;10.50;99.90;;;10.21;100.00;98556.06;5087001;28;21157;-78
2023/09/26 04:05:21;;;;;;;13.10;11.70;;;10.50;99.90;;;10.16;100.00;98557.69;5082499;28;20472;-76
2023/09/26 04:07:49;;;;;;;12.73;11.43;;;10.50;99.90;;;10.33;100.00;98563.63;5086235;28;20469;-76
2023/09/26 04:10:16;;;;;;;12.07;10.77;;;10.60;99.90;;;10.27;100.00;98553.63;5087030;28;20516;-77
2023/09/26 04:12:44;;;;;;;14.23;10.70;;;10.70;99.90;;;10.35;100.00;98556.16;5088370;28;20457;-79
2023/09/26 04:15:12;;;;;;;9.80;8.60;;;10.70;99.90;;;10.28;100.00;98539.09;5089315;28;20454;-77
2023/09/26 04:17:41;;;;;;;10.23;8.90;;;10.70;99.90;;;10.44;100.00;98556.84;5085649;28;20457;-78
2023/09/26 04:20:12;;;;;;;11.33;10.23;;;10.80;99.90;;;10.47;100.00;98543.75;5080835;28;20461;-78
2023/09/26 04:22:40;;;;;;;10.67;9.60;;;10.80;99.90;;;10.49;100.00;98547.09;5095393;28;20461;-79
2023/09/26 04:25:09;;;;;;;9.63;8.73;;;10.80;99.90;;;10.56;100.00;98555.22;5104006;28;20477;-77
2023/09/26 04:27:37;;;;;;;11.00;9.80;;;10.90;99.90;;;10.57;100.00;98545.25;5104515;28;20449;-80
2023/09/26 04:30:07;;;;;;;10.67;9.50;;;11.00;99.90;;;10.52;100.00;98528.81;5097159;28;20510;-77
2023/09/26 04:32:34;;;;;;;12.40;8.87;;;11.00;99.90;;;10.56;100.00;98508.47;5087489;28;20459;-78
2023/09/26 04:35:05;;;;;;;10.70;9.70;;;11.10;99.90;;;10.73;100.00;98544.91;5086473;28;20455;-77
2023/09/26 04:37:35;;;;;;;11.23;10.13;;;11.10;99.90;;;10.64;100.00;98527.19;5084944;28;20565;-74
2023/09/26 04:40:04;;;;;;;11.07;9.20;;;11.20;99.90;;;10.82;100.00;98547.41;5078722;28;20969;-77
2023/09/26 04:42:32;;;;;;;10.23;8.90;;;11.20;99.10;;;10.53;99.51;98476.44;5085238;28;20481;-78
2023/09/26 04:45:00;;;;;;;10.80;9.70;;;11.20;99.20;;;11.03;98.94;98555.38;5086383;28;20450;-77
2023/09/26 04:47:27;;;;;;;10.67;9.30;;;11.30;98.30;;;10.64;99.21;98489.34;5083192;28;20479;-77
2023/09/26 04:49:55;;;;;;;12.20;10.67;;;11.30;98.70;;;11.05;97.98;98550.56;5080331;28;21250;-77
2023/09/26 04:52:23;;;;;;;9.93;9.03;;;11.40;97.30;;;11.01;98.67;98552.03;5080167;28;20483;-77
2023/09/26 04:54:53;;;;;;;10.10;9.10;;;11.30;97.70;;;10.99;98.79;98548.69;5083986;28;20446;-77
2023/09/26 04:57:20;;;;;;;10.33;9.33;;;11.30;98.10;;;11.13;98.34;98556.81;5085953;28;20540;-76
2023/09/26 04:59:47;;;;;;;10.40;9.30;;;11.30;98.90;;;11.16;97.38;98540.19;5083073;28;20462;-78
2023/09/26 05:02:14;;;;;;;12.97;8.77;;;11.40;97.70;;;10.96;97.79;98529.34;5068396;28;20783;-77
2023/09/26 05:04:45;;;;;;;10.47;9.13;;;11.40;96.90;;;11.15;96.63;98542.06;5086428;28;20455;-78
2023/09/26 05:07:12;;;;;;;8.70;7.90;;;11.50;96.00;;;11.05;96.97;98531.66;5078169;28;20901;-80
2023/09/26 05:09:41;;;;;;;9.27;8.40;;;11.50;95.70;;;11.30;95.60;98558.09;5079788;28;20506;-81
2023/09/26 05:12:10;;;;;;;14.77;8.67;;;11.60;95.40;;;11.22;95.94;98550.19;5076900;28;20950;-73
2023/09/26 05:14:37;;;;;;;8.33;7.63;;;11.60;95.10;;;11.27;96.04;98553.09;5076539;28;20454;-73
2023/09/26 05:17:05;;;;;;;12.70;8.87;;;11.60;95.50;;;11.27;95.87;98546.88;5083317;28;20448;-73
2023/09/26 05:19:32;;;;;;;8.43;7.63;;;11.70;95.50;;;11.28;97.08;98543.94;5095388;28;20815;-73
2023/09/26 05:21:59;;;;;;;10.80;8.00;;;11.70;95.50;;;11.48;95.31;98551.25;5080922;28;20474;-74
2023/09/26 05:24:26;;;;;;;8.77;7.63;;;11.80;95.10;;;11.44;93.77;98541.84;5076419;28;20724;-74
2023/09/26 05:26:55;;;;;;;8.70;7.83;;;11.90;93.60;;;11.36;93.19;98536.66;5081077;28;20475;-74
2023/09/26 05:29:22;;;;;;;8.70;7.70;;;11.90;93.60;;;11.54;94.92;98546.88;5077742;28;20458;-77
2023/09/26 05:31:49;;;;;;;8.40;7.60;;;11.90;94.50;;;11.33;93.33;98552.28;5078140;28;20457;-76
2023/09/26 05:34:17;;;;;;;8.53;7.00;;;11.90;92.90;;;11.45;93.10;98557.06;5080326;28;20535;-77
2023/09/26 05:36:44;;;;;;;8.80;7.60;;;11.90;93.30;;;11.54;92.47;98546.88;5081177;28;20459;-77
2023/09/26 05:39:11;;;;;;;8.80;7.97;;;11.90;93.20;;;11.44;91.99;98545.41;5084011;28;20524;-75
2023/09/26 05:41:38;;;;;;;8.17;7.40;;;11.90;92.80;;;11.56;92.38;98537.50;5081826;28;20511;-76
2023/09/26 05:44:08;;;;;;;8.63;7.37;;;12.00;93.40;;;11.59;92.22;98539.78;5084407;28;20460;-76
2023/09/26 05:46:35;;;;;;;8.03;7.23;;;11.90;93.20;;;11.37;92.60;98543.75;5080722;28;20473;-76
2023/09/26 05:49:02;;;;;;;9.20;7.00;;;11.90;92.80;;;11.25;92.43;98547.06;5084035;28;20456;-77
2023/09/26 05:51:29;;;;;;;8.10;7.10;;;11.80;92.70;;;11.20;93.15;98563.91;5083278;28;20454;-74
2023/09/26 05:53:57;;;;;;;9.87;7.60;;;11.60;93.10;;;11.20;93.21;98561.19;5083572;28;20843;-76
2023/09/26 05:56:24;;;;;;;10.37;7.50;;;11.60;93.20;;;11.51;95.30;98544.56;5088349;28;20915;-76
2023/09/26 05:58:51;;;;;;;8.00;6.63;;;11.80;95.10;;;11.84;90.60;98557.25;5078228;28;20461;-73
2023/09/26 06:01:20;;;;;;;7.83;7.13;;;12.10;93.00;;;11.66;90.51;98533.53;5078655;28;20448;-75
2023/09/26 06:03:48;;;;;;;8.63;7.80;;;12.20;92.60;;;11.64;90.48;98557.28;5080926;28;20485;-77
2023/09/26 06:06:15;;;;;;;7.60;6.80;;;12.10;91.90;;;12.21;88.44;98564.91;5079983;28;20466;-81
2023/09/26 06:08:43;;;;;;;8.40;7.70;;;12.50;92.10;;;12.02;88.49;98559.31;5077434;28;20530;-83
2023/09/26 06:11:11;;;;;;;8.73;7.80;;;12.50;91.10;;;12.21;88.77;98563.03;5077905;28;20953;-81
2023/09/26 06:13:39;;;;;;;9.67;8.47;;;12.60;91.40;;;12.41;88.01;98567.53;5079461;28;20489;-82
2023/09/26 06:16:08;;;;;;;11.67;8.63;;;12.70;91.30;;;12.45;88.01;98563.38;5085592;28;20535;-81
2023/09/26 06:18:37;;;;;;;8.40;7.60;;;12.70;91.20;;;12.14;87.89;98568.47;5078160;28;20459;-79
2023/09/26 06:21:05;;;;;;;9.20;8.27;;;12.70;90.60;;;12.01;89.01;98557.63;5083861;28;20442;-80
2023/09/26 06:23:33;;;;;;;8.70;7.90;;;12.60;90.90;;;12.67;87.05;98569.34;5095652;28;21611;-82
2023/09/26 06:26:01;;;;;;;9.23;8.33;;;12.90;91.20;;;12.55;86.20;98565.63;5080670;28;20471;-81
2023/09/26 06:28:29;;;;;;;11.30;8.10;;;13.00;90.60;;;12.81;86.02;98577.38;5080792;28;20451;-76
2023/09/26 06:30:57;;;;;;;10.23;8.70;;;13.20;90.40;;;12.94;83.73;98571.91;5081364;28;20779;-78
2023/09/26 06:33:24;;;;;;;8.80;7.90;;;13.40;90.00;;;13.37;82.79;98559.53;5081986;28;20444;-76
2023/09/26 06:35:52;;;;;;;9.30;8.27;;;13.70;90.00;;;13.73;81.46;98559.91;5077421;28;20506;-79
2023/09/26 06:38:20;;;;;;;9.80;8.57;;;13.90;89.20;;;13.86;80.55;98561.66;5080686;28;20452;-76
2023/09/26 06:40:47;;;;;;;7.67;6.97;;;14.20;88.40;;;13.74;81.48;98570.53;5083197;28;20483;-75
2023/09/26 06:43:14;;;;;;;10.03;8.60;;;14.00;88.30;;;14.06;78.46;98577.75;5109117;28;20456;-74
2023/09/26 06:45:42;;;;;;;8.10;7.30;;;14.30;87.50;;;13.82;80.02;98566.69;5097551;28;20819;-74
2023/09/26 06:48:09;;;;;;;8.33;7.53;;;14.20;87.40;;;13.79;79.48;98566.28;5101080;28;20460;-76
2023/09/26 06:50:43;;;;;;;7.90;7.10;;;14.20;87.10;;;14.20;78.81;98566.75;5085092;28;20463;-77
2023/09/26 06:53:12;;;;;;;10.80;8.17;;;14.30;87.40;;;13.96;77.93;98566.56;5082986;28;20548;-76
2023/09/26 06:55:40;;;;;;;8.20;7.50;;;14.40;86.40;;;13.91;78.78;98569.13;5081677;28;20460;-81
2023/09/26 06:58:07;;;;;;;9.07;8.10;;;14.40;86.50;;;14.00;78.61;98579.47;5081581;28;20516;-76
2023/09/26 07:00:37;;;;;;;8.07;7.27;;;14.40;86.30;;;14.48;77.42;98568.94;5079168;28;20440;-77
2023/09/26 07:03:06;;;;;;;8.00;7.30;;;14.60;86.70;;;14.68;75.29;98568.69;5081918;28;20559;-77
2023/09/26 07:05:34;;;;;;;8.83;7.93;;;14.80;85.90;;;14.82;74.90;98568.56;5086576;28;20932;-78
2023/09/26 07:08:01;;;;;;;8.67;7.87;;;15.00;85.20;;;14.96;74.39;98566.47;5081170;28;20505;-78
2023/09/26 07:10:30;;;;;;;8.23;7.43;;;15.20;85.10;;;15.13;73.80;98566.66;5079914;28;20456;-79
2023/09/26 07:12:57;;;;;;;7.77;7.00;;;15.30;84.80;;;14.73;74.54;98560.69;5085170;28;20460;-80
2023/09/26 07:15:28;;;;;;;9.73;7.70;;;15.30;84.20;;;14.51;75.25;98559.50;5083796;28;20947;-80
2023/09/26 07:17:56;;;;;;;8.50;7.70;;;15.20;84.20;;;14.13;76.84;98539.66;5083790;28;20560;-78
2023/09/26 07:20:23;;;;;;;8.87;7.97;;;15.00;84.60;;;14.27;77.15;98559.34;5083273;28;20483;-77
2023/09/26 07:22:51;;;;;;;8.57;7.77;;;14.90;84.90;;;14.18;78.02;98564.25;5082022;28;20631;-78
2023/09/26 07:25:18;;;;;;;10.80;8.23;;;14.70;85.30;;;14.13;77.53;98573.06;5084247;28;20455;-79
2023/09/26 07:27:47;;;;;;;8.30;7.60;;;14.70;85.00;;;14.79;75.26;98564.38;5078666;28;20525;-78
2023/09/26 07:30:15;;;;;;;11.03;8.27;;;14.90;85.00;;;14.72;74.48;98504.66;5080377;28;20592;-79
2023/09/26 07:32:42;;;;;;;10.90;8.17;;;15.10;85.00;;;15.44;72.66;98554.66;5080667;28;20459;-79
2023/09/26 07:35:10;;;;;;;9.00;8.20;;;15.40;84.60;;;15.30;72.75;98558.63;5084648;28;20459;-77
2023/09/26 07:37:37;;;;;;;9.47;8.60;;;15.60;84.00;;;14.97;74.30;98568.97;5082071;28;20463;-79
2023/09/26 07:40:08;;;;;;;9.60;8.80;;;15.50;84.00;;;14.81;74.11;98545.94;5078148;28;20441;-78
2023/09/26 07:42:36;;;;;;;9.13;8.13;;;15.50;83.80;;;15.02;74.39;98563.66;5084393;28;20447;-79
2023/09/26 07:45:07;;;;;;;8.47;7.63;;;15.40;84.00;;;15.39;73.02;98561.84;5084641;28;20473;-77
2023/09/26 07:47:34;;;;;;;9.23;8.43;;;15.60;83.80;;;15.05;73.97;98575.97;5084512;28;20995;-78
2023/09/26 07:50:01;;;;;;;8.30;7.50;;;15.50;83.90;;;15.84;70.93;98564.03;5085246;28;20527;-79
2023/09/26 07:52:29;;;;;;;9.60;8.63;;;16.00;83.50;;;15.82;70.93;98566.16;5084259;28;20452;-77
2023/09/26 07:54:57;;;;;;;8.90;8.10;;;16.10;83.40;;;16.16;70.10;98565.59;5086375;28;20476;-78
2023/09/26 07:57:24;;;;;;;9.90;8.90;;;16.30;83.00;;;16.08;69.92;98574.97;5076843;28;20463;-77
2023/09/26 07:59:51;;;;;;;9.20;8.30;;;16.40;82.60;;;16.42;69.45;98566.97;5078637;28;21876;-78
2023/09/26 08:02:20;;;;;;;9.30;8.40;;;16.50;82.70;;;16.45;69.34;98557.50;5082244;28;20461;-78
2023/09/26 08:04:47;;;;;;;10.07;8.33;;;16.60;82.50;;;17.07;66.82;98569.66;5083973;28;20946;-77
2023/09/26 08:07:15;;;;;;;9.93;8.97;;;17.00;82.10;;;16.34;68.93;98561.91;5082310;28;20467;-79
2023/09/26 08:09:42;;;;;;;8.93;7.90;;;16.90;81.50;;;16.54;69.75;98566.13;5079992;28;20445;-77
2023/09/26 08:12:10;;;;;;;10.67;9.17;;;16.70;82.40;;;16.92;67.92;98561.13;5079800;28;20565;-78
2023/09/26 08:14:37;;;;;;;11.23;9.50;;;17.00;81.90;;;16.31;68.67;98505.16;5082661;28;20865;-78
2023/09/26 08:17:04;;;;;;;10.20;9.07;;;17.00;81.80;;;16.97;67.23;98553.88;5079962;28;20452;-77
2023/09/26 08:19:33;;;;;;;11.43;9.07;;;17.20;81.40;;;16.62;68.89;98563.03;5082753;28;20452;-79
2023/09/26 08:22:00;;;;;;;9.93;8.97;;;17.10;81.30;;;16.14;69.78;98510.50;5080909;28;20444;-77
2023/09/26 08:24:27;;;;;;;11.13;10.03;;;16.90;81.50;;;16.17;71.52;98561.00;5077441;28;20443;-78
2023/09/26 08:26:55;;;;;;;10.90;9.90;;;16.60;82.20;;;16.33;70.77;98554.81;5081717;28;20470;-78
2023/09/26 08:29:22;;;;;;;10.20;8.80;;;16.60;82.60;;;16.56;69.87;98553.06;5081748;28;20541;-78
2023/09/26 08:31:51;;;;;;;10.23;9.33;;;16.70;82.50;;;16.00;72.02;98542.66;5083196;28;20930;-78
2023/09/26 08:34:18;;;;;;;11.33;9.40;;;16.50;82.70;;;16.06;71.95;98547.13;5085001;28;20851;-77
2023/09/26 08:36:47;;;;;;;11.70;9.43;;;16.30;83.00;;;15.97;73.07;98552.13;5082769;28;20445;-77
2023/09/26 08:39:15;;;;;;;11.07;9.13;;;16.20;83.50;;;16.12;72.57;98548.88;5079068;28;20568;-77
2023/09/26 08:41:45;;;;;;;14.43;8.70;;;16.30;83.60;;;16.26;72.76;98538.56;5083744;28;20467;-79
2023/09/26 08:44:13;;;;;;;11.57;8.90;;;16.40;83.90;;;16.39;71.84;98532.03;5085204;28;20517;-78
2023/09/26 08:46:41;;;;;;;9.50;8.57;;;16.60;83.90;;;16.59;71.54;98541.69;5081976;28;20471;-79
2023/09/26 08:49:10;;;;;;;9.43;8.10;;;16.70;83.70;;;16.26;72.97;98543.19;5094186;28;20890;-78
2023/09/26 08:51:37;;;;;;;9.07;8.13;;;16.60;83.50;;;16.39;72.43;98545.66;5083512;28;20486;-78
2023/09/26 08:54:07;;;;;;;8.40;7.57;;;16.70;83.60;;;16.63;71.61;98537.41;5080699;28;20828;-77
2023/09/26 08:56:35;;;;;;;9.67;8.67;;;16.80;83.80;;;16.78;71.44;98545.06;5080798;28;20459;-76
2023/09/26 08:59:03;;;;;;;9.47;8.00;;;16.90;83.70;;;17.06;70.81;98539.84;5079978;28;20448;-77
2023/09/26 09:01:31;;;;;;;8.97;7.60;;;17.00;83.70;;;17.08;70.37;98545.91;5098417;28;21048;-78
2023/09/26 09:03:58;;;;;;;9.30;8.10;;;17.20;83.50;;;17.21;70.30;98531.97;5083697;28;20478;-75
2023/09/26 09:06:26;;;;;;;9.63;8.67;;;17.30;83.40;;;17.26;70.45;98544.84;5094308;28;20805;-77
2023/09/26 09:09:10;;;;;;;10.50;7.83;;;17.40;83.50;;;17.31;70.73;98536.78;5096589;28;20471;-77
2023/09/26 09:11:37;;;;;;;9.37;8.47;;;17.50;83.50;;;17.49;69.90;98532.94;5088461;28;20448;-73
2023/09/26 09:14:06;;;;;;;8.67;7.93;;;17.60;83.40;;;17.63;69.56;98544.38;5091023;28;20503;-77
2023/09/26 09:16:33;;;;;;;8.20;7.23;;;17.70;83.30;;;17.84;69.13;98529.13;5088668;28;20459;-77
2023/09/26 09:19:00;;;;;;;7.93;7.20;;;17.90;83.40;;;17.89;68.77;98533.03;5088716;28;20479;-77
2023/09/26 09:21:30;;;;;;;7.30;6.60;;;18.00;83.10;;;18.02;68.51;98529.97;5087795;28;20530;-77
2023/09/26 09:23:59;;;;;;;8.83;6.97;;;18.10;83.00;;;18.09;68.40;98519.66;5087711;28;20966;-76
2023/09/26 09:26:32;;;;;;;7.20;6.50;;;18.20;83.00;;;18.20;67.57;98511.59;5085779;28;21074;-78
2023/09/26 09:29:17;;;;;;;9.40;7.47;;;18.40;82.50;;;18.30;67.83;98514.47;5084546;28;20450;-78
2023/09/26 09:31:45;;;;;;;7.80;7.00;;;18.40;82.50;;;18.48;67.34;98515.22;5090836;28;20453;-79
2023/09/26 09:34:12;;;;;;;8.60;6.37;;;18.50;82.40;;;18.17;68.44;98514.84;5082238;28;20547;-76
2023/09/26 09:36:39;;;;;;;6.90;6.20;;;18.50;82.70;;;18.29;68.38;98504.63;5097493;28;20959;-75
2023/09/26 09:39:09;;;;;;;6.73;6.10;;;18.50;82.50;;;18.59;67.32;98499.75;5085393;28;20454;-76
2023/09/26 09:41:39;;;;;;;10.27;6.80;;;18.70;82.50;;;18.63;67.84;98501.72;5088931;28;20463;-77
2023/09/26 09:44:06;;;;;;;7.97;7.27;;;18.80;82.70;;;18.68;67.02;98487.28;5083673;28;20549;-78
2023/09/26 09:46:38;;;;;;;7.13;6.53;;;18.90;82.30;;;18.71;67.30;98491.41;5082175;28;20465;-78
2023/09/26 09:49:10;;;;;;;8.17;6.77;;;18.90;82.30;;;18.57;68.09;98501.94;5086349;28;20458;-78
2023/09/26 09:51:41;;;;;;;8.53;6.40;;;18.90;82.30;;;18.78;67.80;98498.31;5083689;28;20460;-79
2023/09/26 09:54:13;;;;;;;8.37;7.17;;;19.00;82.50;;;18.73;67.45;98479.13;5084997;28;20512;-77
2023/09/26 09:56:47;;;;;;;8.43;7.43;;;19.00;82.30;;;18.98;66.56;98486.75;5085172;28;20860;-76
2023/09/26 09:59:16;;;;;;;6.73;6.13;;;19.10;82.10;;;19.07;66.45;98489.06;5084329;28;20459;-79
2023/09/26 10:01:49;;;;;;;7.37;6.67;;;19.20;82.00;;;19.17;66.18;98489.13;5086016;28;20947;-76
2023/09/26 10:04:17;;;;;;;7.27;6.57;;;19.30;81.90;;;19.14;65.71;98462.28;5086856;28;20455;-78
2023/09/26 10:06:45;;;;;;;7.13;6.50;;;19.40;81.70;;;19.23;66.17;98488.09;5085179;28;20451;-77
2023/09/26 10:09:14;;;;;;;7.20;6.50;;;19.40;81.70;;;19.40;65.53;98473.44;5085168;28;21200;-77
2023/09/26 10:11:44;;;;;;;7.20;6.50;;;19.50;81.40;;;19.51;65.54;98477.06;5087460;28;20461;-78
2023/09/26 10:14:13;;;;;;;6.90;6.20;;;19.60;81.50;;;19.37;65.96;98468.50;5083861;28;20536;-78
2023/09/26 10:16:41;;;;;;;8.63;6.60;;;19.60;81.60;;;19.53;65.45;98467.50;5087244;28;20456;-78
2023/09/26 10:19:09;;;;;;;6.30;5.80;;;19.70;81.50;;;19.55;65.56;98467.22;5081613;28;20552;-75